createdAt,value
2018-09-24T00:02:22.972Z,1.98
2018-09-24T00:04:51.851Z,1.47
2018-09-24T00:07:20.768Z,1.80
2018-09-24T00:09:49.620Z,1.85
2018-09-24T00:12:19.012Z,1.25
2018-09-24T00:14:47.974Z,1.90
2018-09-24T00:17:16.841Z,1.45
2018-09-24T00:19:45.736Z,1.67
2018-09-24T00:22:14.749Z,1.85
2018-09-24T00:24:43.650Z,2.22
2018-09-24T00:27:12.529Z,3.17
2018-09-24T00:29:41.503Z,2.12
2018-09-24T00:32:11.032Z,1.82
2018-09-24T00:34:39.927Z,1.77
2018-09-24T00:37:08.871Z,2.60
2018-09-24T00:39:37.753Z,1.80
2018-09-24T00:42:06.732Z,1.80
2018-09-24T00:44:35.644Z,1.85
2018-09-24T00:47:04.523Z,1.90
2018-09-24T00:49:33.445Z,2.40
2018-09-24T00:52:02.430Z,1.87
2018-09-24T00:54:32.006Z,2.70
2018-09-24T00:57:00.889Z,2.80
2018-09-24T00:59:29.847Z,2.30
2018-09-24T01:01:58.774Z,2.40
2018-09-24T01:04:27.624Z,3.00
2018-09-24T01:06:56.555Z,2.65
2018-09-24T01:09:25.480Z,2.17
2018-09-24T01:11:54.332Z,1.95
2018-09-24T01:14:23.286Z,2.47
2018-09-24T01:16:52.859Z,2.40
2018-09-24T01:19:21.743Z,2.22
2018-09-24T01:21:50.667Z,2.27
2018-09-24T01:24:20.076Z,2.10
2018-09-24T01:26:48.949Z,2.27
2018-09-24T01:29:17.880Z,2.02
2018-09-24T01:31:46.749Z,2.60
2018-09-24T01:34:15.625Z,1.95
2018-09-24T01:36:44.642Z,1.72
2018-09-24T01:39:13.533Z,2.00
2018-09-24T01:41:42.407Z,2.05
2018-09-24T01:44:11.456Z,2.05
2018-09-24T01:46:40.360Z,1.62
2018-09-24T01:49:09.246Z,2.00
2018-09-24T01:51:39.276Z,1.42
2018-09-24T01:54:08.499Z,1.57
2018-09-24T01:56:37.373Z,1.62
2018-09-24T01:59:06.351Z,1.70
2018-09-24T02:01:35.226Z,1.32
2018-09-24T02:04:04.171Z,1.55
2018-09-24T02:06:33.139Z,1.67
2018-09-24T02:09:02.648Z,1.42
2018-09-24T02:11:31.598Z,1.95
2018-09-24T02:14:00.563Z,1.82
2018-09-24T02:16:29.475Z,1.90
2018-09-24T02:19:00.946Z,1.62
2018-09-24T02:21:29.853Z,1.80
2018-09-24T02:24:03.744Z,2.10
2018-09-24T02:26:32.615Z,1.60
2018-09-24T02:29:01.728Z,2.70
2018-09-24T02:31:35.523Z,1.75
2018-09-24T02:34:04.975Z,1.90
2018-09-24T02:36:34.437Z,2.65
2018-09-24T02:39:03.464Z,2.35
2018-09-24T02:41:32.791Z,3.20
2018-09-24T02:44:01.708Z,2.90
2018-09-24T02:46:30.674Z,2.52
2018-09-24T02:49:04.423Z,3.22
2018-09-24T02:51:33.472Z,2.92
2018-09-24T02:54:02.367Z,3.45
2018-09-24T02:56:31.271Z,3.17
2018-09-24T02:59:00.199Z,3.75
2018-09-24T03:01:33.180Z,3.30
2018-09-24T03:04:02.511Z,3.00
2018-09-24T03:06:37.065Z,3.50
2018-09-24T03:09:14.724Z,3.80
2018-09-24T03:11:44.054Z,3.70
2018-09-24T03:14:12.931Z,3.15
2018-09-24T03:16:41.882Z,3.30
2018-09-24T03:19:10.747Z,3.02
2018-09-24T03:21:40.250Z,2.60
2018-09-24T03:24:09.667Z,4.53
2018-09-24T03:26:43.341Z,2.67
2018-09-24T03:29:19.367Z,3.52
2018-09-24T03:31:48.249Z,3.95
2018-09-24T03:34:18.716Z,3.40
2018-09-24T03:36:48.476Z,3.40
2018-09-24T03:39:17.559Z,3.47
2018-09-24T03:41:46.971Z,3.72
2018-09-24T03:44:15.900Z,2.90
2018-09-24T03:46:44.809Z,3.80
2018-09-24T03:49:13.680Z,3.25
2018-09-24T03:51:42.600Z,3.58
2018-09-24T03:54:11.955Z,2.75
2018-09-24T03:56:40.817Z,3.95
2018-09-24T03:59:09.803Z,2.75
2018-09-24T04:01:39.303Z,3.90
2018-09-24T04:04:13.696Z,3.12
2018-09-24T04:06:48.081Z,2.95
2018-09-24T04:09:22.202Z,3.25
2018-09-24T04:11:56.514Z,3.25
2018-09-24T04:14:30.681Z,2.15
2018-09-24T04:17:04.719Z,2.90
2018-09-24T04:19:38.880Z,3.40
2018-09-24T04:22:12.919Z,2.60
2018-09-24T04:24:47.179Z,2.55
2018-09-24T04:27:21.275Z,3.15
2018-09-24T04:29:55.400Z,3.17
2018-09-24T04:32:29.367Z,2.45
2018-09-24T04:35:03.571Z,2.20
2018-09-24T04:37:37.579Z,3.30
2018-09-24T04:40:11.992Z,2.50
2018-09-24T04:42:46.436Z,2.75
2018-09-24T04:45:21.232Z,3.30
2018-09-24T04:47:55.438Z,2.40
2018-09-24T04:50:29.727Z,3.15
2018-09-24T04:53:04.395Z,2.47
2018-09-24T04:55:39.231Z,2.02
2018-09-24T04:58:13.256Z,2.10
2018-09-24T05:00:47.435Z,2.08
2018-09-24T05:03:21.393Z,2.80
2018-09-24T05:05:55.692Z,2.30
2018-09-24T05:08:29.864Z,2.12
2018-09-24T05:11:04.021Z,2.25
2018-09-24T05:13:38.047Z,2.83
2018-09-24T05:16:13.231Z,2.50
2018-09-24T05:18:47.649Z,2.08
2018-09-24T05:21:21.998Z,2.15
2018-09-24T05:23:58.777Z,2.35
2018-09-24T05:26:32.989Z,2.25
2018-09-24T05:29:07.101Z,2.00
2018-09-24T05:31:41.195Z,1.82
2018-09-24T05:34:15.658Z,1.50
2018-09-24T05:36:49.947Z,1.90
2018-09-24T05:39:24.461Z,1.52
2018-09-24T05:41:58.540Z,2.17
2018-09-24T05:44:32.747Z,1.12
2018-09-24T05:47:06.934Z,1.92
2018-09-24T05:49:40.971Z,2.33
2018-09-24T05:52:15.288Z,1.30
2018-09-24T05:54:50.218Z,1.50
2018-09-24T05:57:24.496Z,1.17
2018-09-24T05:59:58.536Z,1.32
2018-09-24T06:02:32.769Z,1.40
2018-09-24T06:05:07.492Z,1.98
2018-09-24T06:07:41.555Z,1.57
2018-09-24T06:10:15.727Z,1.37
2018-09-24T06:12:49.887Z,1.10
2018-09-24T06:15:23.922Z,0.88
2018-09-24T06:17:58.294Z,1.00
2018-09-24T06:20:32.469Z,1.40
2018-09-24T06:23:06.806Z,0.98
2018-09-24T06:25:40.930Z,1.50
2018-09-24T06:28:15.833Z,1.30
2018-09-24T06:30:49.884Z,1.22
2018-09-24T06:33:24.238Z,1.20
2018-09-24T06:35:58.776Z,1.32
2018-09-24T06:38:32.926Z,1.70
2018-09-24T06:41:07.082Z,1.47
2018-09-24T06:43:41.467Z,1.25
2018-09-24T06:46:15.540Z,1.22
2018-09-24T06:48:49.878Z,1.62
2018-09-24T06:51:24.067Z,1.40
2018-09-24T06:53:58.058Z,1.95
2018-09-24T06:56:32.207Z,1.00
2018-09-24T06:59:06.483Z,1.12
2018-09-24T07:01:40.483Z,1.22
2018-09-24T07:04:14.661Z,0.90
2018-09-24T07:06:48.850Z,2.10
2018-09-24T07:09:22.860Z,1.00
2018-09-24T07:11:57.134Z,1.12
2018-09-24T07:14:31.404Z,1.27
2018-09-24T07:17:05.431Z,1.30
2018-09-24T07:19:39.632Z,0.88
2018-09-24T07:22:13.923Z,1.27
2018-09-24T07:24:48.027Z,1.12
2018-09-24T07:27:22.312Z,1.15
2018-09-24T07:29:56.478Z,1.00
2018-09-24T07:32:30.601Z,1.30
2018-09-24T07:35:05.246Z,1.42
2018-09-24T07:37:39.381Z,1.27
2018-09-24T07:40:13.632Z,1.10
2018-09-24T07:42:47.781Z,1.95
2018-09-24T07:45:21.991Z,1.45
2018-09-24T07:47:56.111Z,0.98
2018-09-24T07:50:30.411Z,0.72
2018-09-24T07:53:04.353Z,1.07
2018-09-24T07:55:38.543Z,0.90
2018-09-24T07:58:12.796Z,1.30
2018-09-24T08:00:46.896Z,1.30
2018-09-24T08:03:21.086Z,0.98
2018-09-24T08:05:55.336Z,1.70
2018-09-24T08:08:29.486Z,1.22
2018-09-24T08:11:04.440Z,0.85
2018-09-24T08:13:38.598Z,0.80
2018-09-24T08:16:12.992Z,0.75
2018-09-24T08:18:47.180Z,1.05
2018-09-24T08:21:21.708Z,0.80
2018-09-24T08:23:55.671Z,1.07
2018-09-24T08:26:30.048Z,0.60
2018-09-24T08:29:04.163Z,0.60
2018-09-24T08:31:38.479Z,0.90
2018-09-24T08:34:12.636Z,1.67
2018-09-24T08:36:46.949Z,0.93
2018-09-24T08:39:21.084Z,0.60
2018-09-24T08:41:55.596Z,0.40
2018-09-24T08:44:29.607Z,0.75
2018-09-24T08:47:03.881Z,1.77
2018-09-24T08:49:38.056Z,0.90
2018-09-24T08:52:12.151Z,1.00
2018-09-24T08:54:46.198Z,0.93
2018-09-24T08:57:20.397Z,0.80
2018-09-24T08:59:54.544Z,0.80
2018-09-24T09:02:29.212Z,0.50
2018-09-24T09:05:03.270Z,1.05
2018-09-24T09:07:37.870Z,0.55
2018-09-24T09:10:12.033Z,0.40
2018-09-24T09:12:46.172Z,0.65
2018-09-24T09:15:20.354Z,0.70
2018-09-24T09:17:54.482Z,0.88
2018-09-24T09:20:28.727Z,0.82
2018-09-24T09:23:02.908Z,0.60
2018-09-24T09:25:37.260Z,0.78
2018-09-24T09:28:11.492Z,0.55
2018-09-24T09:30:46.394Z,0.90
2018-09-24T09:33:20.512Z,1.30
2018-09-24T09:35:54.548Z,0.75
2018-09-24T09:38:28.653Z,0.50
2018-09-24T09:41:03.356Z,0.90
2018-09-24T09:43:37.679Z,0.60
2018-09-24T09:46:11.858Z,0.60
2018-09-24T09:48:46.269Z,1.05
2018-09-24T09:51:20.573Z,0.72
2018-09-24T09:53:54.879Z,0.30
2018-09-24T09:56:28.911Z,0.80
2018-09-24T09:59:03.170Z,0.70
2018-09-24T10:01:37.470Z,0.90
2018-09-24T10:04:11.619Z,0.60
2018-09-24T10:06:45.819Z,0.70
2018-09-24T10:09:20.008Z,0.60
2018-09-24T10:11:54.089Z,1.00
2018-09-24T10:14:28.396Z,0.60
2018-09-24T10:17:02.550Z,0.70
2018-09-24T10:19:36.712Z,0.50
2018-09-24T10:22:10.890Z,0.40
2018-09-24T10:24:45.088Z,0.90
2018-09-24T10:27:19.173Z,0.60
2018-09-24T10:29:53.270Z,0.93
2018-09-24T10:32:27.475Z,0.70
2018-09-24T10:35:02.021Z,0.60
2018-09-24T10:37:36.054Z,0.70
2018-09-24T10:40:10.564Z,0.70
2018-09-24T10:42:44.855Z,0.68
2018-09-24T10:45:19.007Z,0.50
2018-09-24T10:47:53.182Z,0.78
2018-09-24T10:50:27.588Z,0.70
2018-09-24T10:53:01.721Z,0.60
2018-09-24T10:55:35.780Z,0.93
2018-09-24T10:58:10.054Z,0.80
2018-09-24T11:00:44.447Z,0.70
2018-09-24T11:03:18.437Z,0.47
2018-09-24T11:05:52.859Z,0.50
2018-09-24T11:08:27.247Z,0.82
2018-09-24T11:11:02.433Z,0.60
2018-09-24T11:13:36.542Z,0.62
2018-09-24T11:16:10.776Z,0.60
2018-09-24T11:18:44.726Z,0.60
2018-09-24T11:21:18.739Z,0.40
2018-09-24T11:23:52.947Z,0.70
2018-09-24T11:29:01.332Z,0.60
2018-09-24T11:31:35.556Z,0.62
2018-09-24T11:34:09.864Z,1.07
2018-09-24T11:36:44.448Z,0.50
2018-09-24T11:39:18.875Z,0.55
2018-09-24T11:41:53.014Z,0.50
2018-09-24T11:44:27.245Z,0.60
2018-09-24T11:47:01.447Z,0.60
2018-09-24T11:49:35.547Z,0.72
2018-09-24T11:52:09.593Z,0.57
2018-09-24T11:54:43.810Z,0.57
2018-09-24T11:57:18.007Z,0.90
2018-09-24T11:59:52.289Z,0.60
2018-09-24T12:02:26.771Z,0.60
2018-09-24T12:05:00.860Z,0.78
2018-09-24T12:07:35.057Z,0.47
2018-09-24T12:10:09.306Z,0.60
2018-09-24T12:12:43.863Z,0.50
2018-09-24T12:15:24.892Z,0.62
2018-09-24T12:17:59.200Z,0.50
2018-09-24T12:20:33.520Z,0.82
2018-09-24T12:23:07.828Z,0.55
2018-09-24T12:25:41.915Z,0.60
2018-09-24T12:28:16.090Z,0.75
2018-09-24T12:30:50.205Z,0.65
2018-09-24T12:33:24.355Z,0.60
2018-09-24T12:35:58.519Z,0.70
2018-09-24T12:38:32.616Z,0.68
2018-09-24T12:41:06.878Z,0.40
2018-09-24T12:43:41.131Z,0.40
2018-09-24T12:46:15.243Z,0.47
2018-09-24T12:48:49.386Z,0.50
2018-09-24T12:51:23.627Z,0.60
2018-09-24T12:53:57.776Z,0.90
2018-09-24T12:56:31.855Z,0.40
2018-09-24T12:59:06.059Z,0.70
2018-09-24T13:01:40.360Z,0.50
2018-09-24T13:04:14.536Z,0.82
2018-09-24T13:06:48.798Z,0.75
2018-09-24T13:09:23.314Z,0.70
2018-09-24T13:11:57.644Z,0.60
2018-09-24T13:14:32.271Z,0.40
2018-09-24T13:17:06.300Z,0.88
2018-09-24T13:19:40.481Z,0.45
2018-09-24T13:22:14.894Z,0.55
2018-09-24T13:24:49.111Z,0.30
2018-09-24T13:27:23.186Z,0.35
2018-09-24T13:29:57.376Z,0.70
2018-09-24T13:32:31.580Z,0.70
2018-09-24T13:35:05.823Z,0.40
2018-09-24T13:37:39.944Z,0.60
2018-09-24T13:40:14.156Z,0.40
2018-09-24T13:42:48.153Z,0.80
2018-09-24T13:45:22.825Z,1.30
2018-09-24T13:47:57.021Z,0.50
2018-09-24T13:50:31.347Z,0.60
2018-09-24T13:53:05.520Z,0.70
2018-09-24T13:55:40.516Z,0.50
2018-09-24T13:58:14.563Z,0.47
2018-09-24T14:00:48.703Z,0.60
2018-09-24T14:03:23.084Z,0.40
2018-09-24T14:05:57.225Z,0.40
2018-09-24T14:08:31.207Z,0.35
2018-09-24T14:11:05.387Z,0.62
2018-09-24T14:13:39.459Z,0.55
2018-09-24T14:16:13.772Z,0.78
2018-09-24T14:18:48.278Z,1.40
2018-09-24T14:21:22.552Z,0.50
2018-09-24T14:23:56.738Z,0.50
2018-09-24T14:26:30.931Z,0.50
2018-09-24T14:29:05.116Z,0.40
2018-09-24T14:31:39.271Z,0.40
2018-09-24T14:34:13.499Z,0.40
2018-09-24T14:36:47.716Z,0.30
2018-09-24T14:39:21.825Z,0.45
2018-09-24T14:41:56.271Z,0.47
2018-09-24T14:44:30.404Z,0.37
2018-09-24T14:47:04.449Z,0.53
2018-09-24T14:49:53.191Z,0.30
2018-09-24T14:52:27.378Z,0.85
2018-09-24T14:55:01.305Z,0.60
2018-09-24T14:57:35.895Z,0.50
2018-09-24T15:00:10.229Z,0.40
2018-09-24T15:02:44.331Z,0.95
2018-09-24T15:05:18.559Z,0.82
2018-09-24T15:07:52.708Z,0.50
2018-09-24T15:10:26.765Z,0.60
2018-09-24T15:13:00.858Z,0.60
2018-09-24T15:15:35.109Z,0.70
2018-09-24T15:18:09.701Z,0.57
2018-09-24T15:20:43.915Z,0.50
2018-09-24T15:23:18.091Z,0.50
2018-09-24T15:25:52.295Z,0.80
2018-09-24T15:28:26.463Z,0.70
2018-09-24T15:31:00.611Z,0.65
2018-09-24T15:33:34.723Z,0.50
2018-09-24T15:36:08.924Z,0.60
2018-09-24T15:38:43.178Z,0.50
2018-09-24T15:41:17.188Z,0.50
2018-09-24T15:43:51.367Z,0.70
2018-09-24T15:46:25.547Z,0.93
2018-09-24T15:48:59.766Z,0.60
2018-09-24T15:51:33.833Z,0.95
2018-09-24T15:54:08.036Z,1.17
2018-09-24T15:56:42.015Z,0.70
2018-09-24T15:59:16.512Z,0.60
2018-09-24T16:01:50.651Z,0.60
2018-09-24T16:04:25.528Z,0.47
2018-09-24T16:07:00.396Z,0.85
2018-09-24T16:09:34.622Z,0.70
2018-09-24T16:12:08.929Z,0.50
2018-09-24T16:14:43.263Z,0.95
2018-09-24T16:17:17.371Z,1.05
2018-09-24T16:19:51.715Z,0.65
2018-09-24T16:22:25.709Z,1.10
2018-09-24T16:24:59.942Z,1.30
2018-09-24T16:27:34.055Z,0.90
2018-09-24T16:30:08.449Z,1.35
2018-09-24T16:32:42.656Z,0.50
2018-09-24T16:35:17.006Z,1.00
2018-09-24T16:37:51.806Z,1.05
2018-09-24T16:40:26.476Z,0.60
2018-09-24T16:43:01.186Z,0.95
2018-09-24T16:45:35.394Z,1.00
2018-09-24T16:48:09.462Z,0.75
2018-09-24T16:50:43.651Z,0.90
2018-09-24T16:53:17.739Z,0.70
2018-09-24T16:55:51.848Z,1.12
2018-09-24T16:58:25.888Z,0.65
2018-09-24T17:01:00.109Z,0.78
2018-09-24T17:03:34.822Z,1.10
2018-09-24T17:06:09.049Z,1.05
2018-09-24T17:08:43.484Z,0.88
2018-09-24T17:11:17.666Z,0.82
2018-09-24T17:13:51.682Z,1.52
2018-09-24T17:16:26.016Z,1.40
2018-09-24T17:19:00.129Z,1.70
2018-09-24T17:21:34.275Z,1.20
2018-09-24T17:24:08.338Z,1.70
2018-09-24T17:26:42.547Z,0.93
2018-09-24T17:29:16.647Z,0.90
2018-09-24T17:31:51.010Z,0.60
2018-09-24T17:34:25.687Z,0.68
2018-09-24T17:37:00.218Z,0.70
2018-09-24T17:39:34.220Z,0.60
2018-09-24T17:42:13.709Z,0.45
2018-09-24T17:44:47.844Z,0.62
2018-09-24T17:47:22.694Z,0.40
2018-09-24T17:49:57.343Z,1.30
2018-09-24T17:52:31.611Z,0.70
2018-09-24T17:55:06.122Z,1.02
2018-09-24T17:57:40.336Z,0.82
2018-09-24T18:00:14.434Z,0.47
2018-09-24T18:02:48.648Z,0.62
2018-09-24T18:05:22.599Z,1.35
2018-09-24T18:07:56.886Z,1.10
2018-09-24T18:10:31.091Z,1.35
2018-09-24T18:13:05.362Z,0.90
2018-09-24T18:15:39.493Z,0.72
2018-09-24T18:18:13.708Z,0.82
2018-09-24T18:20:47.984Z,1.90
2018-09-24T18:23:22.203Z,0.62
2018-09-24T18:25:57.351Z,1.30
2018-09-24T18:28:31.584Z,1.72
2018-09-24T18:31:05.899Z,0.85
2018-09-24T18:33:40.095Z,1.22
2018-09-24T18:36:14.290Z,1.15
2018-09-24T18:38:48.455Z,0.72
2018-09-24T18:41:22.703Z,1.07
2018-09-24T18:43:56.806Z,1.20
2018-09-24T18:46:30.989Z,0.85
2018-09-24T18:49:05.175Z,1.47
2018-09-24T18:51:39.350Z,1.07
2018-09-24T18:54:13.730Z,0.93
2018-09-24T18:56:48.004Z,1.07
2018-09-24T18:59:22.296Z,1.10
2018-09-24T19:01:56.570Z,0.75
2018-09-24T19:04:30.924Z,1.17
2018-09-24T19:07:05.140Z,1.00
2018-09-24T19:09:39.875Z,0.90
2018-09-24T19:12:14.295Z,1.42
2018-09-24T19:14:48.701Z,1.22
2018-09-24T19:17:22.936Z,0.72
2018-09-24T19:19:57.238Z,1.00
2018-09-24T19:22:31.895Z,1.20
2018-09-24T19:25:06.231Z,1.92
2018-09-24T19:27:40.760Z,0.78
2018-09-24T19:30:14.969Z,1.20
2018-09-24T19:32:49.673Z,0.75
2018-09-24T19:35:24.059Z,0.95
2018-09-24T19:37:58.322Z,0.62
2018-09-24T19:40:33.664Z,1.00
2018-09-24T19:43:08.097Z,0.70
2018-09-24T19:45:42.381Z,1.25
2018-09-24T19:48:16.610Z,1.00
2018-09-24T19:50:51.352Z,0.60
2018-09-24T19:53:25.665Z,0.98
2018-09-24T19:55:59.934Z,1.05
2018-09-24T19:58:34.744Z,1.02
2018-09-24T20:01:09.151Z,0.45
2018-09-24T20:03:43.964Z,0.78
2018-09-24T20:06:18.590Z,0.80
2018-09-24T20:08:52.904Z,1.15
2018-09-24T20:11:27.530Z,1.12
2018-09-24T20:14:01.599Z,0.90
2018-09-24T20:16:35.709Z,0.80
2018-09-24T20:19:09.642Z,1.27
2018-09-24T20:21:43.950Z,0.93
2018-09-24T20:24:18.288Z,0.95
2018-09-24T20:26:52.667Z,0.80
2018-09-24T20:29:26.979Z,1.07
2018-09-24T20:32:01.251Z,0.90
2018-09-24T20:34:35.455Z,0.95
2018-09-24T20:37:09.975Z,1.35
2018-09-24T20:39:44.290Z,1.20
2018-09-24T20:42:18.656Z,1.12
2018-09-24T20:44:52.919Z,1.15
2018-09-24T20:47:27.332Z,1.00
2018-09-24T20:50:01.529Z,1.35
2018-09-24T20:52:36.461Z,1.15
2018-09-24T20:55:11.281Z,1.25
2018-09-24T20:57:45.571Z,1.30
2018-09-24T21:00:19.864Z,1.10
2018-09-24T21:02:54.248Z,1.20
2018-09-24T21:05:28.461Z,1.37
2018-09-24T21:08:02.697Z,1.30
2018-09-24T21:10:37.089Z,1.70
2018-09-24T21:13:11.428Z,1.12
2018-09-24T21:15:45.723Z,1.45
2018-09-24T21:18:20.219Z,1.10
2018-09-24T21:20:54.379Z,1.12
2018-09-24T21:23:28.645Z,1.52
2018-09-24T21:26:03.087Z,1.32
2018-09-24T21:28:38.043Z,0.78
2018-09-24T21:31:12.434Z,1.40
2018-09-24T21:33:46.681Z,0.90
2018-09-24T21:36:20.812Z,1.12
2018-09-24T21:38:54.971Z,1.60
2018-09-24T21:41:29.403Z,1.35
2018-09-24T21:44:03.904Z,1.00
2018-09-24T21:46:38.513Z,1.05
2018-09-24T21:49:12.850Z,0.93
2018-09-24T21:51:47.728Z,0.78
2018-09-24T21:54:21.956Z,2.00
2018-09-24T21:56:56.310Z,0.90
2018-09-24T21:59:31.553Z,0.82
2018-09-24T22:02:06.451Z,0.55
2018-09-24T22:04:40.884Z,0.90
2018-09-24T22:07:15.406Z,0.75
2018-09-24T22:09:49.924Z,0.57
2018-09-24T22:12:23.955Z,1.00
2018-09-24T22:14:58.356Z,0.50
2018-09-24T22:17:32.906Z,0.88
2018-09-24T22:20:07.082Z,0.72
2018-09-24T22:22:42.016Z,0.90
2018-09-24T22:25:16.642Z,0.75
2018-09-24T22:27:51.689Z,0.53
2018-09-24T22:30:26.011Z,0.70
2018-09-24T22:33:00.404Z,0.70
2018-09-24T22:35:34.758Z,0.53
2018-09-24T22:38:09.135Z,0.95
2018-09-24T22:40:43.919Z,0.70
2018-09-24T22:43:18.182Z,0.95
2018-09-24T22:45:52.254Z,0.70
2018-09-24T22:48:26.331Z,0.60
2018-09-24T22:51:00.921Z,0.75
2018-09-24T22:53:35.172Z,0.90
2018-09-24T22:56:09.346Z,0.75
2018-09-24T22:58:43.767Z,0.72
2018-09-24T23:01:18.184Z,0.60
2018-09-24T23:03:52.518Z,0.80
2018-09-24T23:06:27.044Z,0.80
2018-09-24T23:09:01.302Z,1.02
2018-09-24T23:11:35.650Z,0.70
2018-09-24T23:14:09.969Z,0.68
2018-09-24T23:16:44.790Z,0.80
2018-09-24T23:19:19.042Z,0.70
2018-09-24T23:21:53.488Z,1.45
2018-09-24T23:24:27.900Z,2.70
2018-09-24T23:27:02.871Z,0.68
2018-09-24T23:29:37.597Z,0.57
2018-09-24T23:32:11.875Z,0.70
2018-09-24T23:34:46.070Z,0.62
2018-09-24T23:37:20.542Z,0.70
2018-09-24T23:39:55.016Z,0.80
2018-09-24T23:42:29.480Z,0.40
2018-09-24T23:45:03.778Z,0.47
2018-09-24T23:47:38.214Z,0.60
2018-09-24T23:50:12.548Z,0.50
2018-09-24T23:52:46.831Z,0.50
2018-09-24T23:55:21.121Z,0.60
2018-09-24T23:57:55.448Z,0.47
